Time;durP1;ratioP1;P1;durP2;ratioP2;P2;SDS_P1;SDS_P2;PMS_P1;PMS_P2;Temp;Humidity;BMP_temperature;BMP_pressure;BME280_temperature;BME280_humidity;BME280_pressure;Samples;Min_cycle;Max_cycle;Signal;HPM_P1;HPM_P2
2021/03/14 00:04:40;;;;;;;1.65;0.40;;;17.80;60.10;;;;;;10488641;28;20059;-55
2021/03/14 00:09:40;;;;;;;0.82;0.30;;;17.80;60.10;;;;;;10468867;28;20082;-55
2021/03/14 00:14:41;;;;;;;0.40;0.30;;;17.80;60.10;;;;;;10456641;28;20451;-56
2021/03/14 00:19:43;;;;;;;2.15;0.40;;;17.80;60.20;;;;;;10475105;28;20028;-55
2021/03/14 00:24:43;;;;;;;2.22;0.60;;;17.80;60.70;;;;;;10482882;28;20111;-55
2021/03/14 00:29:44;;;;;;;1.27;0.30;;;17.80;60.00;;;;;;10476967;28;20036;-55
2021/03/14 00:34:45;;;;;;;0.63;0.30;;;17.80;60.00;;;;;;10473185;28;20056;-55
2021/03/14 00:39:46;;;;;;;2.58;0.50;;;17.90;59.90;;;;;;10481320;28;20035;-55
2021/03/14 00:44:46;;;;;;;1.33;0.40;;;17.90;59.90;;;;;;10496766;28;20056;-55
2021/03/14 00:49:47;;;;;;;0.82;0.43;;;17.90;59.80;;;;;;10479230;28;20071;-55
2021/03/14 00:54:48;;;;;;;0.63;0.30;;;17.90;59.80;;;;;;10456210;28;20033;-55
2021/03/14 00:59:48;;;;;;;0.80;0.40;;;17.90;59.70;;;;;;10471952;28;20123;-55
2021/03/14 01:04:49;;;;;;;0.77;0.43;;;17.90;59.70;;;;;;10497260;28;20044;-55
2021/03/14 01:09:50;;;;;;;1.10;0.30;;;17.90;59.70;;;;;;10465313;28;20060;-55
2021/03/14 01:14:50;;;;;;;1.20;0.43;;;17.90;59.70;;;;;;10455057;28;20497;-54
2021/03/14 01:19:51;;;;;;;2.75;0.85;;;17.90;59.60;;;;;;10459575;28;20033;-56
2021/03/14 01:24:51;;;;;;;2.05;0.38;;;17.80;59.60;;;;;;10455648;28;20107;-55
2021/03/14 01:29:52;;;;;;;0.32;0.22;;;17.90;59.60;;;;;;10478529;28;20035;-55
2021/03/14 01:34:53;;;;;;;1.35;0.20;;;17.90;59.50;;;;;;10471118;28;20025;-56
2021/03/14 01:39:53;;;;;;;1.73;0.30;;;17.90;59.50;;;;;;10481074;28;20040;-55
2021/03/14 01:44:55;;;;;;;1.45;0.50;;;17.90;59.50;;;;;;10483927;28;20067;-56
2021/03/14 01:49:57;;;;;;;0.68;0.20;;;17.90;59.50;;;;;;10476546;28;20115;-55
2021/03/14 01:54:57;;;;;;;0.82;0.20;;;17.90;59.50;;;;;;10455468;28;20036;-55
2021/03/14 01:59:59;;;;;;;1.58;0.45;;;17.90;59.50;;;;;;10493736;28;20048;-55
2021/03/14 02:05:00;;;;;;;1.58;0.52;;;17.90;59.40;;;;;;10497697;28;20021;-55
2021/03/14 02:10:02;;;;;;;0.95;0.38;;;17.90;59.40;;;;;;10471050;28;20037;-55
2021/03/14 02:15:06;;;;;;;0.20;0.15;;;17.90;59.30;;;;;;10477282;28;20098;-55
2021/03/14 02:20:16;;;;;;;1.27;0.52;;;17.90;59.30;;;;;;10464240;28;20396;-55
2021/03/14 02:25:28;;;;;;;1.20;0.30;;;17.90;59.40;;;;;;10460693;28;20493;-55
2021/03/14 02:30:30;;;;;;;0.50;0.30;;;17.90;59.30;;;;;;10460473;28;20396;-55
2021/03/14 02:35:31;;;;;;;0.45;0.20;;;17.80;59.30;;;;;;10466136;28;20051;-55
2021/03/14 02:40:34;;;;;;;0.73;0.30;;;17.90;59.40;;;;;;10459856;28;20041;-55
2021/03/14 02:45:35;;;;;;;1.23;0.30;;;17.90;59.40;;;;;;10467784;28;20024;-55
2021/03/14 02:50:37;;;;;;;0.85;0.30;;;17.80;59.30;;;;;;10475009;28;20036;-55
2021/03/14 02:55:38;;;;;;;5.10;0.40;;;17.80;59.40;;;;;;10460867;28;20025;-56
2021/03/14 03:00:43;;;;;;;1.33;0.30;;;17.80;59.40;;;;;;10483473;28;20409;-55
2021/03/14 03:05:44;;;;;;;0.73;0.22;;;17.80;59.30;;;;;;10458820;28;20021;-55
2021/03/14 03:10:47;;;;;;;1.23;0.30;;;17.80;59.30;;;;;;10484860;28;20097;-54
2021/03/14 03:15:48;;;;;;;0.40;0.35;;;17.80;59.30;;;;;;10489549;28;20389;-55
2021/03/14 03:20:51;;;;;;;0.43;0.20;;;17.80;59.30;;;;;;10457722;28;20041;-55
2021/03/14 03:25:51;;;;;;;0.55;0.28;;;17.80;59.30;;;;;;10458654;28;20028;-55
2021/03/14 03:30:52;;;;;;;0.20;0.20;;;17.80;59.30;;;;;;10491428;28;20042;-55
2021/03/14 03:35:53;;;;;;;0.85;0.30;;;17.80;59.30;;;;;;10466625;28;20044;-56
2021/03/14 03:40:54;;;;;;;0.80;0.30;;;17.80;59.30;;;;;;10487618;28;20087;-54
2021/03/14 03:45:59;;;;;;;0.75;0.30;;;17.80;59.20;;;;;;10482514;28;20029;-54
2021/03/14 03:51:03;;;;;;;0.35;0.20;;;17.80;59.20;;;;;;10491338;28;20125;-55
2021/03/14 03:56:05;;;;;;;1.40;0.30;;;17.80;59.20;;;;;;10496362;28;20115;-55
2021/03/14 04:01:10;;;;;;;0.93;0.28;;;17.80;59.20;;;;;;10455755;28;20497;-55
2021/03/14 04:06:12;;;;;;;1.25;0.25;;;17.80;59.30;;;;;;10457085;28;20478;-55
2021/03/14 04:11:17;;;;;;;0.98;0.35;;;17.80;59.30;;;;;;10487095;28;20028;-55
2021/03/14 04:16:18;;;;;;;0.85;0.30;;;17.80;59.30;;;;;;10481627;28;20053;-55
2021/03/14 04:21:21;;;;;;;0.22;0.20;;;17.80;59.10;;;;;;10463833;28;20044;-55
2021/03/14 04:26:22;;;;;;;1.05;0.38;;;17.80;59.10;;;;;;10454908;28;20071;-55
2021/03/14 04:31:24;;;;;;;0.73;0.30;;;17.80;59.10;;;;;;10492394;28;20021;-55
2021/03/14 04:36:25;;;;;;;1.30;0.50;;;17.80;59.10;;;;;;10480510;28;20025;-55
2021/03/14 04:41:26;;;;;;;1.60;0.30;;;17.80;59.10;;;;;;10455946;28;20060;-55
2021/03/14 04:46:27;;;;;;;0.77;0.20;;;17.80;59.10;;;;;;10480303;28;20035;-56
2021/03/14 04:51:31;;;;;;;0.60;0.30;;;17.80;59.10;;;;;;10480650;28;20445;-55
2021/03/14 04:56:32;;;;;;;0.55;0.20;;;17.80;59.00;;;;;;10457472;28;20063;-55
2021/03/14 05:01:38;;;;;;;0.65;0.30;;;17.80;59.10;;;;;;10490803;28;20116;-55
2021/03/14 05:06:42;;;;;;;0.95;0.32;;;17.80;59.00;;;;;;10489336;28;20037;-55
2021/03/14 05:11:46;;;;;;;0.50;0.40;;;17.80;59.70;;;;;;10454869;28;20485;-55
2021/03/14 05:16:47;;;;;;;0.90;0.50;;;17.80;59.00;;;;;;10456505;28;20041;-55
2021/03/14 05:21:48;;;;;;;1.30;0.30;;;17.80;59.10;;;;;;10454550;28;20037;-55
2021/03/14 05:26:49;;;;;;;0.95;0.40;;;17.80;59.10;;;;;;10455150;28;20033;-55
2021/03/14 05:31:52;;;;;;;1.33;0.25;;;17.80;59.60;;;;;;10495729;28;20108;-54
2021/03/14 05:36:53;;;;;;;1.25;0.40;;;17.70;59.00;;;;;;10459462;28;20068;-56
2021/03/14 05:41:54;;;;;;;2.03;0.70;;;17.80;59.00;;;;;;10454434;28;20544;-55
2021/03/14 05:46:55;;;;;;;0.60;0.30;;;17.70;59.00;;;;;;10458787;28;20423;-55
2021/03/14 05:51:58;;;;;;;1.33;0.30;;;17.70;59.00;;;;;;10475963;28;20111;-55
2021/03/14 05:57:02;;;;;;;0.60;0.28;;;17.70;58.90;;;;;;10466517;28;20029;-54
2021/03/14 06:02:04;;;;;;;1.92;0.70;;;17.70;59.00;;;;;;10472688;28;20104;-55
2021/03/14 06:07:04;;;;;;;3.53;0.60;;;17.70;58.90;;;;;;10473104;28;20035;-55
2021/03/14 06:12:12;;;;;;;0.80;0.25;;;17.70;58.90;;;;;;10474322;28;20017;-55
2021/03/14 06:17:13;;;;;;;0.35;0.20;;;17.70;58.80;;;;;;10468722;28;20052;-55
2021/03/14 06:22:19;;;;;;;1.77;0.30;;;17.70;58.90;;;;;;10457630;28;20105;-55
2021/03/14 06:27:38;;;;;;;1.08;0.40;;;17.70;58.90;;;;;;10457304;28;20036;-53
2021/03/14 06:32:39;;;;;;;6.85;0.80;;;17.70;58.80;;;;;;10489974;28;20551;-55
2021/03/14 06:37:40;;;;;;;3.05;0.90;;;17.70;59.40;;;;;;10461192;28;20025;-55
2021/03/14 06:42:42;;;;;;;4.97;0.60;;;17.80;60.70;;;;;;10496155;28;20029;-55
2021/03/14 06:47:48;;;;;;;6.45;0.80;;;17.80;60.70;;;;;;10489186;28;20385;-54
2021/03/14 06:53:12;;;;;;;2.90;0.40;;;17.80;61.00;;;;;;10474030;28;20037;-55
2021/03/14 06:58:19;;;;;;;4.80;0.70;;;17.90;61.40;;;;;;10477498;28;20500;-55
2021/03/14 07:03:23;;;;;;;7.28;0.80;;;17.80;61.90;;;;;;10498350;28;20035;-54
2021/03/14 07:08:27;;;;;;;3.25;0.50;;;17.80;62.20;;;;;;10482977;28;20033;-54
2021/03/14 07:13:28;;;;;;;2.65;0.52;;;17.70;61.80;;;;;;10457783;28;20497;-56
2021/03/14 07:18:28;;;;;;;9.48;1.17;;;17.60;61.30;;;;;;10468866;28;20029;-56
2021/03/14 07:23:35;;;;;;;8.63;1.10;;;17.60;61.30;;;;;;10459395;28;20021;-56
2021/03/14 07:28:36;;;;;;;8.23;0.90;;;17.60;61.30;;;;;;10459593;28;20033;-56
2021/03/14 07:33:37;;;;;;;4.75;1.13;;;17.60;61.30;;;;;;10478529;28;20032;-56
2021/03/14 07:38:37;;;;;;;7.45;1.20;;;17.60;61.30;;;;;;10500813;28;20037;-58
2021/03/14 07:43:38;;;;;;;15.93;2.10;;;17.60;61.40;;;;;;10460498;28;20067;-57
2021/03/14 07:48:41;;;;;;;20.02;2.65;;;17.60;61.00;;;;;;10493606;28;20025;-60
2021/03/14 07:53:42;;;;;;;23.15;3.20;;;17.70;60.80;;;;;;10457402;28;20124;-58
2021/03/14 07:58:43;;;;;;;22.30;2.63;;;17.70;60.50;;;;;;10456506;28;20424;-58
2021/03/14 08:03:43;;;;;;;14.30;3.17;;;17.70;60.50;;;;;;10489910;28;20024;-58
2021/03/14 08:08:45;;;;;;;17.83;3.13;;;17.70;60.30;;;;;;10494567;28;20552;-58
2021/03/14 08:13:46;;;;;;;16.65;3.20;;;17.70;60.20;;;;;;10498931;28;20079;-57
2021/03/14 08:18:53;;;;;;;11.38;4.68;;;17.70;60.20;;;;;;10486822;28;20112;-57
2021/03/14 08:23:58;;;;;;;12.85;3.70;;;17.70;60.10;;;;;;10457991;28;20081;-58
2021/03/14 08:29:09;;;;;;;17.50;3.38;;;17.70;60.00;;;;;;10459866;28;20465;-57
2021/03/14 08:34:12;;;;;;;13.73;2.63;;;17.70;59.80;;;;;;10479393;28;20029;-58
2021/03/14 08:39:26;;;;;;;11.60;2.58;;;17.70;59.50;;;;;;10464063;28;20381;-58
2021/03/14 08:44:44;;;;;;;15.60;3.25;;;17.70;59.50;;;;;;10498286;28;20108;-58
2021/03/14 08:49:52;;;;;;;15.93;3.05;;;17.70;59.20;;;;;;10483029;28;20428;-57
2021/03/14 08:54:54;;;;;;;14.27;2.90;;;17.70;59.20;;;;;;10456130;28;20040;-58
2021/03/14 08:59:57;;;;;;;5.43;2.17;;;17.70;59.10;;;;;;10474359;28;20025;-58
2021/03/14 09:05:19;;;;;;;21.75;2.50;;;17.70;59.10;;;;;;10485692;28;20713;-57
2021/03/14 09:10:20;;;;;;;19.00;3.10;;;17.70;59.10;;;;;;10450704;28;20037;-60
2021/03/14 09:15:21;;;;;;;16.67;4.80;;;17.70;59.20;;;;;;10472604;28;20040;-58
2021/03/14 09:20:21;;;;;;;23.02;3.70;;;17.70;59.50;;;;;;10475174;28;20067;-58
2021/03/14 09:25:22;;;;;;;17.15;3.45;;;17.70;59.90;;;;;;10458375;28;20028;-57
2021/03/14 09:30:23;;;;;;;18.52;3.08;;;17.70;60.30;;;;;;10477102;28;20036;-58
2021/03/14 09:35:27;;;;;;;14.57;3.03;;;17.70;61.40;;;;;;10467695;28;20036;-58
2021/03/14 09:40:41;;;;;;;18.50;3.35;;;17.70;61.20;;;;;;10473440;28;20056;-57
2021/03/14 09:45:49;;;;;;;16.67;3.20;;;17.70;61.30;;;;;;10486557;28;20032;-58
2021/03/14 09:50:55;;;;;;;12.57;2.97;;;17.70;62.70;;;;;;10483988;28;20037;-57
2021/03/14 09:56:04;;;;;;;11.95;2.53;;;17.70;62.00;;;;;;10474109;28;20067;-57
2021/03/14 10:01:06;;;;;;;18.92;3.33;;;17.70;62.20;;;;;;10454600;28;20041;-57
2021/03/14 10:06:10;;;;;;;14.20;3.03;;;17.70;62.20;;;;;;10457591;28;20028;-55
2021/03/14 10:11:13;;;;;;;12.77;2.35;;;17.60;62.10;;;;;;10465359;28;20025;-56
2021/03/14 10:16:16;;;;;;;9.43;3.20;;;17.70;62.00;;;;;;10462801;28;20044;-57
2021/03/14 10:21:28;;;;;;;13.20;3.13;;;17.60;63.00;;;;;;10460014;28;20412;-57
2021/03/14 10:26:29;;;;;;;12.63;2.92;;;17.50;62.80;;;;;;10461589;28;20444;-57
2021/03/14 10:31:33;;;;;;;11.40;2.65;;;17.50;62.90;;;;;;10488922;28;20116;-57
2021/03/14 10:36:35;;;;;;;10.93;2.80;;;17.50;62.90;;;;;;10471727;28;20074;-58
2021/03/14 10:41:46;;;;;;;23.85;3.13;;;17.40;63.20;;;;;;10475763;28;20032;-58
2021/03/14 10:46:50;;;;;;;18.92;2.78;;;17.40;63.60;;;;;;10481497;28;20029;-57
2021/03/14 10:51:59;;;;;;;12.35;1.80;;;17.40;63.60;;;;;;10480130;28;20112;-58
2021/03/14 10:57:00;;;;;;;19.00;3.45;;;17.40;63.20;;;;;;10458647;28;20036;-56
2021/03/14 11:02:48;;;;;;;9.07;1.95;;;17.40;63.30;;;;;;10494936;28;20033;-58
2021/03/14 11:07:43;;;;;;;10.32;1.85;;;17.30;63.40;;;;;;10499003;28;20388;-57
2021/03/14 11:12:47;;;;;;;8.38;1.65;;;17.30;63.40;;;;;;10484874;28;20052;-56
2021/03/14 11:17:48;;;;;;;11.57;1.98;;;17.30;63.10;;;;;;10469861;28;20033;-57
2021/03/14 11:22:55;;;;;;;8.80;2.00;;;17.30;63.20;;;;;;10477760;28;20029;-57
2021/03/14 11:27:58;;;;;;;6.00;2.40;;;17.30;63.00;;;;;;10458497;28;20145;-56
2021/03/14 11:32:59;;;;;;;9.98;3.42;;;17.30;63.10;;;;;;10484574;28;20044;-56
2021/03/14 11:38:00;;;;;;;9.20;1.73;;;17.20;63.00;;;;;;10457175;28;20104;-57
2021/03/14 11:43:02;;;;;;;8.23;2.28;;;17.20;63.00;;;;;;10458057;28;20021;-58
2021/03/14 11:48:03;;;;;;;12.80;1.90;;;17.10;63.20;;;;;;10458634;28;20114;-57
2021/03/14 11:53:04;;;;;;;6.85;1.55;;;17.10;63.30;;;;;;10473288;28;20025;-57
2021/03/14 11:58:04;;;;;;;12.32;2.33;;;17.00;62.30;;;;;;10467347;28;20021;-59
2021/03/14 12:03:05;;;;;;;13.68;2.38;;;17.10;62.20;;;;;;10477068;28;20031;-53
2021/03/14 12:08:06;;;;;;;7.90;1.75;;;17.10;62.60;;;;;;10446205;28;20033;-55
2021/03/14 12:13:07;;;;;;;4.78;1.40;;;17.20;63.20;;;;;;10482904;28;20028;-54
2021/03/14 12:18:08;;;;;;;9.05;1.55;;;17.30;63.80;;;;;;10460290;28;20067;-55
2021/03/14 12:23:09;;;;;;;12.15;2.00;;;17.30;63.90;;;;;;10493096;28;20113;-54
2021/03/14 12:28:10;;;;;;;10.23;1.83;;;17.40;64.20;;;;;;10498660;28;20075;-55
2021/03/14 12:33:10;;;;;;;9.52;1.83;;;17.40;63.50;;;;;;10460823;28;20037;-54
2021/03/14 12:38:11;;;;;;;9.55;1.85;;;17.30;63.10;;;;;;10456975;28;20037;-55
2021/03/14 12:43:19;;;;;;;11.27;1.73;;;17.30;63.00;;;;;;10460581;28;20036;-56
2021/03/14 12:48:20;;;;;;;8.95;2.28;;;17.20;63.50;;;;;;10477468;28;20083;-54
2021/03/14 12:53:21;;;;;;;8.45;1.60;;;17.20;63.20;;;;;;10456187;28;20032;-56
2021/03/14 12:58:21;;;;;;;11.75;1.88;;;17.20;63.00;;;;;;10487749;28;20119;-56
2021/03/14 13:03:22;;;;;;;9.80;2.38;;;17.30;62.80;;;;;;10456128;28;20029;-56
2021/03/14 13:08:23;;;;;;;9.27;1.60;;;17.30;62.80;;;;;;10456177;28;20029;-57
2021/03/14 13:13:23;;;;;;;11.50;1.70;;;17.30;62.60;;;;;;10475147;28;20068;-56
2021/03/14 13:18:24;;;;;;;8.68;1.73;;;17.30;62.50;;;;;;10494683;28;20111;-57
2021/03/14 13:23:25;;;;;;;7.40;2.08;;;17.30;62.50;;;;;;10454221;28;20063;-56
2021/03/14 13:28:26;;;;;;;11.70;2.30;;;17.30;62.40;;;;;;10454922;28;20098;-56
2021/03/14 13:33:27;;;;;;;2.53;1.13;;;17.30;62.20;;;;;;10481769;28;20060;-57
2021/03/14 13:38:28;;;;;;;5.97;1.38;;;17.30;62.20;;;;;;10455192;28;20064;-57
2021/03/14 13:43:28;;;;;;;7.15;1.23;;;17.30;62.20;;;;;;10484443;28;20021;-57
2021/03/14 13:48:29;;;;;;;5.57;1.33;;;17.30;62.20;;;;;;10472040;28;20071;-56
2021/03/14 13:53:30;;;;;;;2.42;1.55;;;17.30;62.10;;;;;;10482249;28;20472;-57
2021/03/14 13:58:33;;;;;;;4.97;1.35;;;17.30;62.20;;;;;;10479967;28;20033;-57
2021/03/14 14:03:34;;;;;;;5.68;1.40;;;17.30;62.00;;;;;;10478301;28;20032;-57
2021/03/14 14:08:35;;;;;;;3.00;1.10;;;17.30;61.90;;;;;;10484038;28;20032;-57
2021/03/14 14:13:36;;;;;;;5.00;1.63;;;17.30;61.80;;;;;;10488533;28;20103;-56
2021/03/14 14:18:37;;;;;;;7.00;1.45;;;17.30;61.60;;;;;;10507413;28;20068;-57
2021/03/14 14:23:37;;;;;;;7.70;1.13;;;17.40;61.50;;;;;;10492955;28;20664;-54
2021/03/14 14:28:38;;;;;;;8.95;1.67;;;17.40;61.90;;;;;;10472990;28;20107;-57
2021/03/14 14:33:39;;;;;;;18.83;2.53;;;17.50;62.80;;;;;;10484537;28;20071;-57
2021/03/14 14:38:40;;;;;;;9.52;1.80;;;17.50;63.00;;;;;;10478019;28;20040;-57
2021/03/14 14:43:40;;;;;;;22.42;4.88;;;17.50;63.90;;;;;;10490372;28;20533;-56
2021/03/14 14:48:41;;;;;;;11.73;3.72;;;17.60;64.70;;;;;;10489574;28;20032;-57
2021/03/14 14:53:42;;;;;;;14.05;4.43;;;17.60;64.90;;;;;;10469371;28;20075;-57
2021/03/14 14:58:43;;;;;;;20.52;4.25;;;17.60;65.30;;;;;;10476113;28;20037;-55
2021/03/14 15:03:43;;;;;;;16.38;4.00;;;17.60;65.70;;;;;;10488986;28;20504;-56
2021/03/14 15:08:44;;;;;;;27.42;4.28;;;17.70;65.70;;;;;;10468794;28;20070;-56
2021/03/14 15:13:45;;;;;;;21.27;4.70;;;17.70;65.70;;;;;;10472493;28;20131;-55
2021/03/14 15:18:45;;;;;;;24.92;5.57;;;17.60;65.90;;;;;;10480789;28;20466;-57
2021/03/14 15:23:46;;;;;;;25.92;5.25;;;17.60;66.30;;;;;;10460482;28;20025;-55
2021/03/14 15:28:47;;;;;;;22.48;4.88;;;17.60;67.20;;;;;;10471475;28;20075;-57
2021/03/14 15:33:48;;;;;;;24.90;4.70;;;17.60;66.90;;;;;;10482913;28;20060;-56
2021/03/14 15:38:49;;;;;;;21.80;4.47;;;17.60;65.40;;;;;;10463296;28;20388;-55
2021/03/14 15:43:50;;;;;;;19.30;4.28;;;17.60;65.50;;;;;;10482726;28;20526;-56
2021/03/14 15:48:50;;;;;;;20.60;3.58;;;17.60;66.00;;;;;;10496219;28;20113;-57
2021/03/14 15:53:51;;;;;;;11.23;3.58;;;17.60;66.60;;;;;;10485841;28;20450;-57
2021/03/14 15:58:53;;;;;;;12.80;3.53;;;17.60;66.70;;;;;;10493603;28;20060;-58
2021/03/14 16:03:53;;;;;;;21.42;4.78;;;17.60;66.60;;;;;;10458719;28;20040;-58
2021/03/14 16:08:54;;;;;;;16.30;4.13;;;17.60;67.10;;;;;;10457975;28;20110;-57
2021/03/14 16:13:55;;;;;;;12.80;3.15;;;17.60;66.60;;;;;;10474904;28;20068;-56
2021/03/14 16:18:56;;;;;;;14.75;4.38;;;17.50;67.10;;;;;;10456476;28;20462;-56
2021/03/14 16:23:56;;;;;;;25.13;3.30;;;17.60;66.00;;;;;;10484988;28;20032;-55
2021/03/14 16:28:58;;;;;;;15.77;3.58;;;17.40;65.30;;;;;;10457139;28;20493;-56
2021/03/14 16:33:58;;;;;;;17.85;3.38;;;17.40;65.40;;;;;;10461222;28;20024;-56
2021/03/14 16:38:59;;;;;;;12.68;3.22;;;17.40;65.10;;;;;;10493933;28;20058;-55
2021/03/14 16:44:00;;;;;;;14.30;2.70;;;17.30;64.90;;;;;;10476338;28;20461;-57
2021/03/14 16:49:01;;;;;;;10.90;2.90;;;17.30;65.00;;;;;;10467619;28;20073;-56
2021/03/14 16:54:03;;;;;;;12.05;3.30;;;17.30;64.70;;;;;;10477671;28;20438;-55
2021/03/14 16:59:03;;;;;;;12.65;5.22;;;17.20;65.00;;;;;;10478811;28;20158;-54
2021/03/14 17:04:04;;;;;;;14.90;4.00;;;17.30;63.90;;;;;;10483034;28;20072;-55
2021/03/14 17:09:05;;;;;;;10.38;3.65;;;17.30;63.00;;;;;;10468682;28;20461;-57
2021/03/14 17:14:06;;;;;;;11.80;3.80;;;17.40;62.90;;;;;;10480297;28;20063;-57
2021/03/14 17:19:06;;;;;;;13.77;3.72;;;17.40;65.20;;;;;;10455678;28;20039;-57
2021/03/14 17:24:07;;;;;;;9.95;3.33;;;17.50;65.60;;;;;;10471940;28;20082;-56
2021/03/14 17:29:08;;;;;;;11.10;3.38;;;17.60;65.30;;;;;;10470062;28;20033;-57
2021/03/14 17:34:11;;;;;;;13.88;3.90;;;17.60;65.20;;;;;;10458599;28;20039;-56
2021/03/14 17:39:11;;;;;;;10.45;3.28;;;17.60;65.40;;;;;;10482036;28;20111;-56
2021/03/14 17:44:12;;;;;;;9.07;3.13;;;17.60;66.30;;;;;;10480024;28;20100;-56
2021/03/14 17:49:13;;;;;;;9.85;3.03;;;17.60;65.70;;;;;;10477788;28;20149;-56
2021/03/14 17:54:14;;;;;;;10.15;3.45;;;17.60;64.90;;;;;;10469761;28;20024;-56
2021/03/14 17:59:14;;;;;;;10.15;2.78;;;17.60;64.80;;;;;;10477984;28;20021;-56
2021/03/14 18:04:18;;;;;;;10.90;2.60;;;17.50;64.70;;;;;;10474319;28;20051;-56
2021/03/14 18:09:19;;;;;;;12.48;3.65;;;17.50;64.80;;;;;;10472879;28;20029;-56
2021/03/14 18:14:20;;;;;;;11.95;2.42;;;17.50;65.30;;;;;;10470860;28;20048;-56
2021/03/14 18:19:21;;;;;;;14.02;2.45;;;17.50;65.40;;;;;;10453289;28;20033;-55
2021/03/14 18:24:21;;;;;;;7.93;3.50;;;17.50;65.60;;;;;;10458107;28;20056;-55
2021/03/14 18:29:22;;;;;;;15.35;3.65;;;17.60;65.50;;;;;;10473904;28;20143;-56
2021/03/14 18:34:23;;;;;;;13.07;3.10;;;17.50;65.50;;;;;;10464515;28;20071;-56
2021/03/14 18:39:24;;;;;;;7.65;2.83;;;17.60;65.50;;;;;;10474763;28;20393;-56
2021/03/14 18:44:25;;;;;;;12.93;2.65;;;17.60;65.40;;;;;;10423534;28;20124;-54
2021/03/14 18:49:25;;;;;;;9.05;2.50;;;17.60;65.30;;;;;;10434625;28;20040;-54
2021/03/14 18:54:26;;;;;;;7.00;2.63;;;17.60;65.20;;;;;;10430691;28;20040;-54
2021/03/14 18:59:27;;;;;;;10.50;3.70;;;17.60;65.20;;;;;;10428778;28;20159;-55
2021/03/14 19:04:28;;;;;;;10.98;3.15;;;17.60;65.10;;;;;;10429173;28;20053;-56
2021/03/14 19:09:29;;;;;;;5.18;2.33;;;17.60;65.10;;;;;;10427310;28;20034;-55
2021/03/14 19:14:30;;;;;;;4.43;1.65;;;17.60;65.00;;;;;;10429023;28;20163;-56
2021/03/14 19:19:31;;;;;;;12.15;2.60;;;17.60;64.90;;;;;;10444926;28;20021;-55
2021/03/14 19:24:31;;;;;;;5.53;1.98;;;17.60;64.90;;;;;;10437265;28;20061;-55
2021/03/14 19:29:32;;;;;;;5.35;2.33;;;17.60;64.80;;;;;;10451620;28;20056;-55
2021/03/14 19:34:33;;;;;;;4.95;1.90;;;17.60;65.30;;;;;;10446475;28;20243;-55
2021/03/14 19:39:34;;;;;;;9.35;2.15;;;17.60;64.70;;;;;;10434313;28;20072;-56
2021/03/14 19:44:35;;;;;;;8.38;2.50;;;17.60;64.70;;;;;;10431087;28;20028;-55
2021/03/14 19:49:35;;;;;;;3.90;1.70;;;17.60;64.70;;;;;;10430860;28;20109;-55
2021/03/14 19:54:36;;;;;;;6.40;2.03;;;17.60;64.60;;;;;;10426580;28;20120;-55
2021/03/14 19:59:37;;;;;;;3.22;1.52;;;17.60;64.60;;;;;;10424444;28;20036;-55
2021/03/14 20:04:38;;;;;;;5.25;1.73;;;17.60;64.50;;;;;;10424275;28;20025;-56
2021/03/14 20:09:39;;;;;;;6.00;1.50;;;17.70;64.50;;;;;;10426170;28;20065;-55
2021/03/14 20:14:39;;;;;;;8.50;2.13;;;17.60;64.30;;;;;;10425332;28;20132;-55
2021/03/14 20:19:40;;;;;;;5.95;1.95;;;17.70;64.30;;;;;;10424475;28;20060;-55
2021/03/14 20:24:41;;;;;;;6.18;1.88;;;17.70;64.30;;;;;;10438062;28;20029;-54
2021/03/14 20:29:42;;;;;;;5.05;1.70;;;17.70;64.50;;;;;;10455884;28;20037;-55
2021/03/14 20:34:43;;;;;;;7.18;2.58;;;17.70;64.20;;;;;;10476132;28;20477;-54
2021/03/14 20:39:46;;;;;;;4.80;1.70;;;17.60;64.10;;;;;;10495220;28;20058;-54
2021/03/14 20:44:46;;;;;;;3.65;1.15;;;17.60;64.10;;;;;;10461722;28;20529;-55
2021/03/14 20:49:48;;;;;;;6.93;1.83;;;17.60;64.10;;;;;;10457297;28;20112;-54
2021/03/14 20:54:48;;;;;;;4.15;1.63;;;17.60;64.00;;;;;;10455393;28;20546;-55
2021/03/14 20:59:51;;;;;;;2.97;1.45;;;17.60;64.00;;;;;;10484724;28;20029;-54
2021/03/14 21:04:51;;;;;;;6.20;1.90;;;17.60;63.90;;;;;;10494734;28;20017;-55
2021/03/14 21:09:52;;;;;;;6.50;1.45;;;17.60;63.80;;;;;;10455667;28;20033;-55
2021/03/14 21:14:53;;;;;;;3.25;1.20;;;17.60;63.60;;;;;;10454984;28;20132;-55
2021/03/14 21:19:54;;;;;;;4.90;1.08;;;17.70;63.60;;;;;;10490869;28;20032;-55
2021/03/14 21:24:54;;;;;;;3.60;0.98;;;17.60;63.40;;;;;;10497179;28;20440;-55
2021/03/14 21:29:55;;;;;;;3.65;1.20;;;17.60;63.30;;;;;;10466856;28;20108;-55
2021/03/14 21:34:56;;;;;;;3.33;1.55;;;17.70;63.30;;;;;;10471014;28;20029;-55
2021/03/14 21:39:56;;;;;;;2.45;1.00;;;17.70;63.20;;;;;;10482039;28;20036;-54
2021/03/14 21:44:57;;;;;;;2.10;1.00;;;17.70;63.00;;;;;;10459077;28;20029;-55
2021/03/14 21:49:58;;;;;;;2.72;0.95;;;17.70;63.00;;;;;;10473417;28;20025;-55
2021/03/14 21:54:59;;;;;;;3.42;1.17;;;17.70;63.00;;;;;;10455346;28;20099;-55
2021/03/14 22:00:00;;;;;;;2.15;1.20;;;17.70;63.00;;;;;;10454773;28;20394;-55
2021/03/14 22:05:01;;;;;;;2.80;1.00;;;17.70;63.00;;;;;;10454727;28;20123;-55
2021/03/14 22:10:04;;;;;;;2.47;0.98;;;17.70;62.90;;;;;;10475881;28;20024;-55
2021/03/14 22:15:08;;;;;;;2.72;1.30;;;17.70;62.80;;;;;;10493602;28;20515;-55
2021/03/14 22:20:11;;;;;;;3.17;1.05;;;17.70;62.70;;;;;;10500594;28;20039;-55
2021/03/14 22:25:14;;;;;;;4.35;1.23;;;17.70;62.60;;;;;;10502543;28;20043;-53
2021/03/14 22:30:15;;;;;;;2.92;1.10;;;17.70;62.60;;;;;;10477703;28;20033;-54
2021/03/14 22:35:26;;;;;;;3.03;0.70;;;17.70;62.60;;;;;;10462237;28;20021;-55
2021/03/14 22:40:32;;;;;;;4.82;0.82;;;17.70;62.50;;;;;;10479488;28;20457;-55
2021/03/14 22:45:35;;;;;;;3.45;0.77;;;17.70;62.50;;;;;;10495655;28;20115;-55
2021/03/14 22:50:42;;;;;;;3.40;0.82;;;17.70;62.50;;;;;;10492827;28;20044;-55
2021/03/14 22:55:43;;;;;;;1.55;0.98;;;17.70;62.40;;;;;;10477094;28;20029;-55
2021/03/14 23:00:48;;;;;;;2.58;0.98;;;17.70;62.30;;;;;;10468908;28;20385;-55
2021/03/14 23:05:49;;;;;;;3.88;0.90;;;17.70;62.20;;;;;;10487315;28;20082;-55
2021/03/14 23:10:57;;;;;;;1.25;0.60;;;17.70;62.20;;;;;;10502070;28;20044;-55
2021/03/14 23:15:57;;;;;;;2.85;1.00;;;17.70;62.10;;;;;;10459129;28;20040;-53
2021/03/14 23:20:58;;;;;;;1.52;0.80;;;17.70;62.10;;;;;;10460656;28;20036;-55
2021/03/14 23:25:59;;;;;;;2.42;0.95;;;17.70;62.10;;;;;;10490865;28;20354;-55
2021/03/14 23:31:00;;;;;;;1.77;0.93;;;17.70;62.10;;;;;;10495772;28;20111;-55
2021/03/14 23:36:02;;;;;;;4.88;1.48;;;17.70;62.00;;;;;;10465038;28;20116;-55
2021/03/14 23:41:03;;;;;;;1.27;0.63;;;17.70;62.00;;;;;;10495446;28;20437;-55
2021/03/14 23:46:03;;;;;;;1.58;0.80;;;17.70;62.00;;;;;;10467320;28;20369;-55
2021/03/14 23:51:07;;;;;;;1.58;0.47;;;17.70;61.90;;;;;;10472273;28;20035;-54
2021/03/14 23:56:09;;;;;;;1.83;0.70;;;17.70;61.80;;;;;;10485656;28;20086;-55
